Terminal Aerodrome Forecast
Issued by NWS Sioux Falls, SD

Home | Current Version | Previous Version | Text Only | Print | Product List | Glossary On
Versions: 1 2 3 4 5 6 7 8 9 10 11 12 13 14
000
FTUS43 KFSD 261700
TAFFSD
TAF
KFSD 261720Z 2618/2718 06007KT P6SM SCT080 BKN200
     FM270200 09006KT P6SM BKN080
     FM270900 08004KT P6SM BKN060 OVC120 PROB30 2711/2715 -SHRA=

USA.gov is the U.S. government's official web portal to all federal, state and local government web resources and services.